createdAt,value
2019-04-07T00:02:30.726Z,36.70
2019-04-07T00:07:36.554Z,36.77
2019-04-07T00:12:45.478Z,37.90
2019-04-07T00:17:50.561Z,39.47
2019-04-07T00:22:55.835Z,40.13
2019-04-07T00:28:01.869Z,39.37
2019-04-07T00:33:08.484Z,39.50
2019-04-07T00:38:15.028Z,38.07
2019-04-07T00:43:20.117Z,35.00
2019-04-07T00:48:27.493Z,35.20
2019-04-07T00:53:33.030Z,34.63
2019-04-07T00:58:38.026Z,35.30
2019-04-07T01:03:43.116Z,34.53
2019-04-07T01:08:48.246Z,33.73
2019-04-07T01:13:53.956Z,32.20
2019-04-07T01:18:59.172Z,33.23
2019-04-07T01:24:04.477Z,31.73
2019-04-07T01:29:10.172Z,33.63
2019-04-07T01:34:15.863Z,34.73
2019-04-07T01:39:21.038Z,34.27
2019-04-07T01:44:37.350Z,34.83
2019-04-07T01:50:17.351Z,34.27
2019-04-07T01:55:37.280Z,36.70
2019-04-07T02:00:55.466Z,34.87
2019-04-07T02:06:25.615Z,32.17
2019-04-07T02:11:52.993Z,35.73
2019-04-07T02:17:36.316Z,35.13
2019-04-07T02:23:06.386Z,35.07
2019-04-07T02:28:36.248Z,35.77
2019-04-07T02:34:07.137Z,37.93
2019-04-07T02:39:31.085Z,38.70
2019-04-07T02:44:50.787Z,37.93
2019-04-07T02:50:24.906Z,41.00
2019-04-07T02:55:42.266Z,38.87
2019-04-07T03:01:06.948Z,36.13
2019-04-07T03:06:40.404Z,37.47
2019-04-07T03:11:42.959Z,43.10
2019-04-07T03:17:20.109Z,34.33
2019-04-07T03:22:50.761Z,36.77
2019-04-07T03:28:16.048Z,38.37
2019-04-07T03:33:42.621Z,39.03
2019-04-07T03:39:01.028Z,41.73
2019-04-07T03:44:22.972Z,44.00
2019-04-07T03:49:57.021Z,40.37
2019-04-07T03:55:20.630Z,39.07
2019-04-07T04:01:33.246Z,37.00
2019-04-07T04:07:22.433Z,39.87
2019-04-07T04:12:32.111Z,40.60
2019-04-07T04:17:37.112Z,45.33
2019-04-07T04:22:43.113Z,40.23
2019-04-07T04:27:48.777Z,40.93
2019-04-07T04:32:54.395Z,38.90
2019-04-07T04:38:00.268Z,39.73
2019-04-07T04:43:05.243Z,40.13
2019-04-07T04:48:10.297Z,40.67
2019-04-07T04:53:15.370Z,41.23
2019-04-07T04:58:39.812Z,40.97
2019-04-07T05:03:48.308Z,43.17
2019-04-07T05:08:54.580Z,41.67
2019-04-07T05:14:00.290Z,40.07
2019-04-07T05:19:06.173Z,44.40
2019-04-07T05:24:11.649Z,43.73
2019-04-07T05:29:17.130Z,40.97
2019-04-07T05:34:23.372Z,41.10
2019-04-07T05:39:28.512Z,41.37
2019-04-07T05:44:34.441Z,41.27
2019-04-07T05:49:39.468Z,41.70
2019-04-07T05:54:45.094Z,43.47
2019-04-07T05:59:51.248Z,43.90
2019-04-07T06:04:58.598Z,43.03
2019-04-07T06:10:03.546Z,42.13
2019-04-07T06:15:09.693Z,40.20
2019-04-07T06:20:15.905Z,43.27
2019-04-07T06:25:22.406Z,40.40
2019-04-07T06:30:30.153Z,42.90
2019-04-07T06:35:36.794Z,42.70
2019-04-07T06:40:42.687Z,37.10
2019-04-07T06:45:55.019Z,39.47
2019-04-07T06:51:17.345Z,36.83
2019-04-07T06:56:34.113Z,37.37
2019-04-07T07:02:13.325Z,38.30
2019-04-07T07:07:56.291Z,40.73
2019-04-07T07:13:28.813Z,37.10
2019-04-07T07:18:42.280Z,40.17
2019-04-07T07:24:00.224Z,39.97
2019-04-07T07:29:06.684Z,38.10
2019-04-07T07:34:12.324Z,35.63
2019-04-07T07:39:22.874Z,35.63
2019-04-07T07:44:27.944Z,35.43
2019-04-07T07:49:35.164Z,33.47
2019-04-07T07:54:39.738Z,28.77
2019-04-07T07:59:44.850Z,29.33
2019-04-07T08:04:50.019Z,26.07
2019-04-07T08:09:56.604Z,25.07
2019-04-07T08:15:01.873Z,23.87
2019-04-07T08:20:07.847Z,23.47
2019-04-07T08:25:13.103Z,26.70
2019-04-07T08:30:18.449Z,24.37
2019-04-07T08:35:24.329Z,24.93
2019-04-07T08:40:29.414Z,23.00
2019-04-07T08:45:35.053Z,21.40
2019-04-07T08:50:41.037Z,20.83
2019-04-07T08:55:48.648Z,21.93
2019-04-07T09:00:54.135Z,23.85
2019-04-07T09:06:01.004Z,21.43
2019-04-07T09:11:12.380Z,22.37
2019-04-07T09:16:37.104Z,22.83
2019-04-07T09:21:51.831Z,20.50
2019-04-07T09:27:06.963Z,20.55
2019-04-07T09:32:33.430Z,20.40
2019-04-07T09:37:54.114Z,20.77
2019-04-07T09:43:21.228Z,20.27
2019-04-07T09:48:44.166Z,23.70
2019-04-07T09:53:59.171Z,22.77
2019-04-07T09:59:25.715Z,23.05
2019-04-07T10:04:42.476Z,20.70
2019-04-07T10:10:11.617Z,19.40
2019-04-07T10:15:30.621Z,20.65
2019-04-07T10:21:03.846Z,19.92
2019-04-07T10:26:14.650Z,19.80
2019-04-07T10:31:47.750Z,18.27
2019-04-07T10:37:17.855Z,20.15
2019-04-07T10:43:01.438Z,20.52
2019-04-07T10:48:31.797Z,21.73
2019-04-07T10:53:58.665Z,21.48
2019-04-07T10:59:25.641Z,26.07
2019-04-07T11:04:49.721Z,25.82
2019-04-07T11:10:37.299Z,27.85
2019-04-07T11:16:02.911Z,25.23
2019-04-07T11:21:34.975Z,24.45
2019-04-07T11:27:13.059Z,25.75
2019-04-07T11:32:37.342Z,24.37
2019-04-07T11:37:49.850Z,26.05
2019-04-07T11:43:20.806Z,25.12
2019-04-07T11:48:39.181Z,26.55
2019-04-07T15:14:25.340Z,24.65
2019-04-07T15:19:33.209Z,27.80
2019-04-07T15:24:49.558Z,25.90
2019-04-07T15:29:55.549Z,27.37
2019-04-07T15:35:02.313Z,26.93
2019-04-07T15:40:10.806Z,27.95
2019-04-07T15:45:16.770Z,27.75
2019-04-07T15:51:04.887Z,28.07
2019-04-07T15:56:14.152Z,27.73
2019-04-07T16:01:19.213Z,29.37
2019-04-07T16:06:36.100Z,28.10
2019-04-07T16:11:43.465Z,27.73
2019-04-07T16:17:02.106Z,27.67
2019-04-07T16:22:11.256Z,27.62
2019-04-07T16:27:17.280Z,27.60
2019-04-07T16:32:46.955Z,25.75
2019-04-07T16:37:53.242Z,27.40
2019-04-07T16:43:11.709Z,26.62
2019-04-07T17:03:51.295Z,26.27
2019-04-07T17:08:57.768Z,27.55
2019-04-07T17:14:04.197Z,27.60
2019-04-07T17:19:09.857Z,27.17
2019-04-07T17:24:15.268Z,26.30
2019-04-07T17:29:22.660Z,27.87
2019-04-07T17:34:29.385Z,27.13
2019-04-07T17:39:40.608Z,26.57
2019-04-07T17:45:06.220Z,26.80
2019-04-07T17:50:40.448Z,29.27
2019-04-07T17:56:22.892Z,28.83
2019-04-07T18:01:56.770Z,27.17
2019-04-07T18:07:34.149Z,27.05
2019-04-07T18:12:49.766Z,27.40
2019-04-07T18:18:14.435Z,27.10
2019-04-07T18:23:34.916Z,27.50
2019-04-07T18:28:55.653Z,28.80
2019-04-07T18:34:31.513Z,27.60
2019-04-07T18:40:07.256Z,28.52
2019-04-07T18:45:48.439Z,30.15
2019-04-07T18:51:23.157Z,29.85
2019-04-07T18:56:59.348Z,29.30
2019-04-07T19:02:44.198Z,25.57
2019-04-07T19:08:36.611Z,26.55
2019-04-07T19:14:30.638Z,27.55
2019-04-07T19:19:36.304Z,25.87
2019-04-07T19:25:23.930Z,25.52
2019-04-07T19:31:00.506Z,26.52
2019-04-07T19:36:36.860Z,26.90
2019-04-07T19:42:07.501Z,28.00
2019-04-07T19:47:32.688Z,27.05
2019-04-07T19:53:11.220Z,26.95
2019-04-07T19:58:38.644Z,27.07
2019-04-07T20:04:05.317Z,25.90
2019-04-07T20:09:45.819Z,26.25
2019-04-07T20:15:17.972Z,25.55
2019-04-07T20:20:40.589Z,24.85
2019-04-07T20:26:03.621Z,25.02
2019-04-07T20:31:20.822Z,27.87
2019-04-07T20:36:54.839Z,28.43
2019-04-07T20:42:05.240Z,29.40
2019-04-07T20:47:34.120Z,28.57
2019-04-07T20:53:10.059Z,34.25
2019-04-07T20:58:41.599Z,29.00
2019-04-07T21:04:00.772Z,28.17
2019-04-07T21:09:25.949Z,26.68
2019-04-07T21:14:49.387Z,27.67
2019-04-07T21:20:14.474Z,25.27
2019-04-07T21:25:29.140Z,27.15
2019-04-07T21:30:48.607Z,26.97
2019-04-07T21:36:22.143Z,26.43
2019-04-07T21:41:54.333Z,26.97
2019-04-07T21:47:25.512Z,25.53
2019-04-07T21:53:22.909Z,26.70
2019-04-07T21:58:39.899Z,28.50
2019-04-07T22:04:01.218Z,25.40
2019-04-07T22:09:26.865Z,24.07
2019-04-07T22:14:32.813Z,25.00
2019-04-07T22:19:44.605Z,27.03
2019-04-07T22:24:57.981Z,28.27
2019-04-07T22:30:06.381Z,24.43
2019-04-07T22:35:18.879Z,24.77
2019-04-07T22:40:25.574Z,26.00
2019-04-07T22:45:32.787Z,24.67
2019-04-07T22:50:38.819Z,27.20
2019-04-07T22:55:44.938Z,24.67
2019-04-07T23:00:50.565Z,28.57
2019-04-07T23:05:58.227Z,28.43
2019-04-07T23:11:04.358Z,24.57
2019-04-07T23:16:14.550Z,29.57
2019-04-07T23:21:17.232Z,34.83
2019-04-07T23:26:22.355Z,30.60
2019-04-07T23:31:29.960Z,29.07
2019-04-07T23:36:34.963Z,30.13
2019-04-07T23:41:41.401Z,31.93
2019-04-07T23:46:46.409Z,30.57
2019-04-07T23:51:51.646Z,28.93
2019-04-07T23:56:56.637Z,27.40
